Impacts METAR Board
IDs:

KMSY - New Orleans/Armstron, LA, US

Updated at: 2100 UTC 02 Oct 2022
Potential Impact None Slight Moderate High
Time 02/09Z 02/10Z 02/11Z 02/12Z 02/13Z 02/14Z 02/15Z 02/16Z 02/17Z 02/18Z 02/19Z 02/20Z 02/21Z
Temp60 59 58 57 63 71 73 75 76 79 82 82 82
Dewpt55 57 57 55 60 56 54 54 55 54 48 49 51
Altim30.02 30.03 30.04 30.06 30.07 30.09 30.10 30.10 30.10 30.08 30.05 30.03 30.02
VIS10 10 10 10 10 10 10 10 10 10 10 10 10
CIG-- -- -- -- -- -- -- -- -- -- -- -- --
CoverCLRCLRCLRCLRCLRCLRFEWFEWFEWFEWSCTFEWFEW
FltCatVFRVFRVFRVFRVFRVFRVFRVFRVFRVFRVFRVFRVFR
WX--------------------------
WDir0340003103603600330330340300300
WSpd0 3 0 0 3 6 4 3 5 7 7 5 5
WGst-- -- -- -- -- -- -- -- -- -- -- -- --
R02/20
XWnd VRB 2 VRB VRB 3 2 1 VRB 4 5 4 5 5
HWnd VRB 2 VRB VRB 1 6 4 VRB 4 5 6 1 1
R11/29
XWnd VRB 2 VRB VRB 1 6 4 VRB 4 5 6 1 1
HWnd VRB -2 VRB VRB -3 -2 -1 VRB -4 -5 -4 -5 -5
Raw hourly METARs
KMSY 020853Z 00000KT 10SM CLR 16/13 A3002 RMK AO2 SLP167 T01560128 58001
KMSY 020953Z 34003KT 10SM CLR 15/14 A3003 RMK AO2 SLP171 T01500139
KMSY 021053Z 00000KT 10SM CLR 14/14 A3004 RMK AO2 SLP176 T01440139
KMSY 021153Z 00000KT 10SM CLR 14/13 A3006 RMK AO2 SLP181 T01390128 10222 20133 53014
KMSY 021253Z 31003KT 10SM CLR 17/16 A3007 RMK AO2 SLP187 T01720156
KMSY 021353Z 36006KT 10SM CLR 22/13 A3009 RMK AO2 SLP191 T02170133
KMSY 021453Z 36004KT 10SM FEW250 23/12 A3010 RMK AO2 SLP195 T02280122 51014
KMSY 021553Z VRB03KT 10SM FEW250 24/12 A3010 RMK AO2 SLP196 T02390122
KMSY 021653Z 33005KT 10SM FEW250 24/13 A3010 RMK AO2 SLP195 T02440128
KMSY 021753Z 33007KT 10SM FEW250 26/12 A3008 RMK AO2 SLP189 T02610122 10261 20139 58006
KMSY 021853Z 34007KT 10SM SCT250 28/09 A3005 RMK AO2 SLP180 T02780089
KMSY 021953Z 30005KT 10SM FEW250 28/09 A3003 RMK AO2 SLP172 T02780094
KMSY 022053Z 30005KT 10SM FEW250 28/11 A3002 RMK AO2 SLP167 T02780106 56021



Page loaded:  21:59 UTC  |   02:59 PM Pacific  |   03:59 PM Mountain  |   04:59 PM Central  |   05:59 PM Eastern

 

ADVISORIES

FORECASTS

FORECASTS

OBSERVATIONS

USER TOOLS

ABOUT US